Bookmark and Share
Track history (hours):
 

MSC Maria Saveria

Last reported at 2014-Apr-18 07:31 UTC. Time now 2014-Apr-18 08:11 UTC.
Position N 44°06' E 009°51'.

Length 366 m; draft 11.2 m.

Type: Ship (hazmat cat A). MMSI: 372400000.

NotesDate/timePositionNaut miles runAvg speedWind from/ knotsBaromVisibWave heightAir tempDewpointWater temp
2014-Apr-18 07:31N 44°06' E 009°51'0 0.0
2014-Apr-18 06:31N 44°06' E 009°51'0 0.0
2014-Apr-18 05:31N 44°06' E 009°51'0 0.0
2014-Apr-18 04:31N 44°06' E 009°51'0 0.0
2014-Apr-18 03:28N 44°06' E 009°51'0 0.0
2014-Apr-18 02:31N 44°06' E 009°51'0 0.0
2014-Apr-18 01:31N 44°06' E 009°51'0 0.0
2014-Apr-18 00:28N 44°06' E 009°51'0 0.0
2014-Apr-17 23:31N 44°06' E 009°51'0 0.0
2014-Apr-17 22:31N 44°06' E 009°51'0 0.0
2014-Apr-17 21:31N 44°06' E 009°51'0 0.0
2014-Apr-17 20:31N 44°06' E 009°51'0 0.0
2014-Apr-17 19:31N 44°06' E 009°51'0 0.0
2014-Apr-17 18:31N 44°06' E 009°51'0 0.0
2014-Apr-17 17:31N 44°06' E 009°51'0 0.0
2014-Apr-17 16:31N 44°06' E 009°51'0 0.0
2014-Apr-17 15:28N 44°06' E 009°51'0 0.0
2014-Apr-17 14:31N 44°06' E 009°51'0 0.0
2014-Apr-17 13:31N 44°06' E 009°51'0 0.0
2014-Apr-17 12:31N 44°06' E 009°51'0 0.0
2014-Apr-17 11:31N 44°06' E 009°51'0 0.0
2014-Apr-17 10:31N 44°06' E 009°51'0 0.0
2014-Apr-17 09:31N 44°06' E 009°51'0 0.0
2014-Apr-17 08:31N 44°06' E 009°51'0 0.0
2014-Apr-17 07:28N 44°06' E 009°51'0 0.0
2014-Apr-17 06:31N 44°06' E 009°51'1 0.9
2014-Apr-17 05:33N 44°05' E 009°51'5 5.5
2014-Apr-17 04:33N 44°01' E 009°55'7 6.6
2014-Apr-17 03:33N 43°57' E 009°48'9 8.6
2014-Apr-17 02:33N 43°52' E 009°38'1413.6
2014-Apr-17 01:33N 43°45' E 009°22'1414.4
2014-Apr-17 00:33N 43°37' E 009°05'1414.4
2014-Apr-16 23:33N 43°30' E 008°49'1414.1
2014-Apr-16 22:33N 43°22' E 008°32'1414.3
2014-Apr-16 21:33N 43°15' E 008°15'7514.8
2014-Apr-16 16:28N 42°35' E 006°48'1915.5
2014-Apr-16 15:13N 42°25' E 006°26'1015.7
2014-Apr-16 14:33N 42°19' E 006°14'1916.3
2014-Apr-16 13:25N 42°10' E 005°52'3217.1
2014-Apr-16 11:32N 41°52' E 005°15'1716.7
2014-Apr-16 10:30N 41°43' E 004°56'1616.6
2014-Apr-16 09:31N 41°35' E 004°37'1816.2
2014-Apr-16 08:25N 41°25' E 004°17'1517.6
2014-Apr-16 07:33N 41°17' E 003°60'3015.0
2014-Apr-16 05:33N 41°01' E 003°26'1513.6
2014-Apr-16 04:25N 40°53' E 003°09'1213.7
2014-Apr-16 03:33N 40°47' E 002°56'1414.1
2014-Apr-16 02:33N 40°39' E 002°40'1514.5
2014-Apr-16 01:33N 40°32' E 002°23'1514.7
2014-Apr-16 00:33N 40°24' E 002°07'1414.5
2014-Apr-15 23:33N 40°17' E 001°51'1514.7
2014-Apr-15 22:33N 40°09' E 001°34'1515.0
2014-Apr-15 21:33N 40°01' E 001°18'1413.8
2014-Apr-15 20:34N 39°54' E 001°02'1514.5
2014-Apr-15 19:33N 39°46' E 000°46'1514.4
2014-Apr-15 18:33N 39°38' E 000°30'1715.8
2014-Apr-15 17:27N 39°30' E 000°10'1413.6
2014-Apr-15 16:26N 39°27' W 000°07'46 1.3
2014-Apr-14 05:30N 39°17' E 000°52'14120.3
2014-Apr-13 22:33N 38°58' E 003°52'1817.6
2014-Apr-13 21:33N 38°57' E 004°15'19117.0
2014-Apr-13 10:19N 38°42' E 008°20'1417.1
2014-Apr-13 09:30N 38°41' E 008°37'1617.1
2014-Apr-13 08:33N 38°39' E 008°58'1817.1
2014-Apr-13 07:29N 38°38' E 009°22'  
2014-Apr-08 14:22N 31°25' E 032°24'1214.5
2014-Apr-08 13:33N 31°13' E 032°21'9 8.5
2014-Apr-08 12:33N 31°05' E 032°19'  

Dump ship's entire track history

sailing weather and tide predictions

MSC Maria Saveria — 3FLE8 — position and weather